LUK weather

Cincinnati Municipal Airport Lunken Field
Cincinnati, Ohio, United States

Public forecast

Using degrees Fahrenheit for public forecast. Weather courtesy of forecast.io.

METAR (pilot weather report)

Retrieved 2018/06/18 03:53 UTC (1 hour ago):

KLUK 180353Z AUTO 00000KT 7SM CLR 24/23 A3007 RMK AO2 SLP177 T02390228

TAF (pilot weather forecast)

Forecast is more than 12 hours old.

Retrieved 2018/06/17 00:39 UTC (1 day ago):

TAF KLUK 172337Z 1800/1824 23006KT P6SM FEW050 SCT250 FM180200 22003KT P6SM FEW250 FM180600 00000KT 3SM BR SKC TEMPO 1809/1812 1SM BR FM181300 23005KT P6SM FEW250 FM181600 24008KT P6SM FEW050